Lancaster, CA

5:40 PM PDT on August 02, 2015 (GMT -0700)
APRSWXNET | | Change Station
CLOSE
Current Station
Personal Weather Station
Location: Rosamond, CA
Elevation: 2463 ft
Nearby Weather Stations

Elev 2463 ft 34.78 °N, 118.28 °W | Updated 21 minutes ago

Clear
Clear
97 °F
Feels Like 93 °F
N
7
Wind Variable Wind from NNE
Gusts 10.0 mph

Today
High -- | Low -- °F
--% Chance of Precip.
Yesterday
High -- | Low -- °F
Precip. -- in
6:03 AM 7:54 PM
Waning Gibbous, 91% visible
Pressure 29.80 in
Visibility 10.0 miles
Clouds Clear
Heat Index 93 °F
Dew Point 43 °F
Humidity 16%
Rainfall in
Snow Depth Not available.
UV 4 out of 12
Pollen 3.70 out of 12
Air Quality Not available.
Flu Activity Not available.
METAR KWJF 022356Z 25019G25KT 10SM CLR 36/07 A2987 RMK AO2 SLP091 T03610072 10378 20328 58013

More Conditions Fewer Conditions

Pressure 29.80 in
Visibility 10.0 miles
Clouds Clear
Heat Index 93 °F
Dew Point 43 °F
Humidity 16%
Rainfall in
Snow Depth Not available.
UV 4 out of 12
Pollen 3.70 out of 12
Air Quality Not available.
Flu Activity Not available.
METAR KWJF 022356Z 25019G25KT 10SM CLR 36/07 A2987 RMK AO2 SLP091 T03610072 10378 20328 58013

More Conditions Fewer Conditions

10-Day Weather Forecast

×

Almanac

Astronomy

Aug. 02, 2015 Rise Set
Actual Time
Civil Twilight
Nautical Twilight
Astronomical Twilight
Moon
Length of Visible Light
Length of Day
Tomorrow will be .
, % of the Moon is Illuminated

Today's Extremes

State Highs State Lows

Community

WunderPhotos

Upload Photos

1,843,474 photos uploaded!

WunderBlogs® & News

Nearby

Air Quality

  Air Quality AQ Index Pollutant
Not available.

Snow Depth

Station Depth Elevation

Earthquake Activity

City Distance Mag. Time & Date
Minimum magnitude displayed is 2.5.

Coastal Water Temperatures

Place Temperature

Stations

Nearby Weather Stations

Station Location Temp. Windchill Dew Point Humidity Wind Precip. Elev Updated Type